createdAt,value
2019-05-05T00:02:24.841Z,4.40
2019-05-05T00:05:32.264Z,4.30
2019-05-05T00:08:20.402Z,4.20
2019-05-05T00:11:27.452Z,4.20
2019-05-05T00:14:41.722Z,4.20
2019-05-05T00:20:38.571Z,4.30
2019-05-05T00:23:26.687Z,4.30
2019-05-05T00:26:15.036Z,4.30
2019-05-05T00:29:04.548Z,4.30
2019-05-05T00:31:54.700Z,4.30
2019-05-05T00:34:44.456Z,4.30
2019-05-05T00:37:34.571Z,4.30
2019-05-05T00:40:24.856Z,4.30
2019-05-05T00:43:14.766Z,4.30
2019-05-05T00:48:52.141Z,4.30
2019-05-05T00:51:20.888Z,4.20
2019-05-05T00:54:08.871Z,4.10
2019-05-05T00:56:56.871Z,4.10
2019-05-05T00:59:45.305Z,4.10
2019-05-05T01:02:54.219Z,4.10
2019-05-05T01:08:56.710Z,4.10
2019-05-05T01:11:44.716Z,4.00
2019-05-05T01:14:34.274Z,3.90
2019-05-05T01:17:22.444Z,3.90
2019-05-05T01:20:10.714Z,3.90
2019-05-05T01:22:58.730Z,3.90
2019-05-05T01:25:48.694Z,3.90
2019-05-05T01:28:36.478Z,3.90
2019-05-05T01:31:25.247Z,3.90
2019-05-05T01:34:34.862Z,3.90
2019-05-05T01:40:58.412Z,3.80
2019-05-05T01:44:05.455Z,3.80
2019-05-05T01:46:55.043Z,3.80
2019-05-05T01:49:35.860Z,3.80
2019-05-05T01:52:15.073Z,3.80
2019-05-05T01:55:05.167Z,3.80
2019-05-05T01:57:54.331Z,3.70
2019-05-05T02:00:42.719Z,3.70
2019-05-05T02:03:30.762Z,3.70
2019-05-05T02:09:12.583Z,3.70
2019-05-05T02:12:00.581Z,3.70
2019-05-05T02:14:48.555Z,3.60
2019-05-05T02:17:36.547Z,3.60
2019-05-05T02:20:45.095Z,3.60
2019-05-05T02:23:35.155Z,3.60
2019-05-05T02:26:24.556Z,3.60
2019-05-05T02:29:32.512Z,3.60
2019-05-05T02:32:39.629Z,3.60
2019-05-05T02:35:27.711Z,3.50
2019-05-05T02:38:15.938Z,3.50
2019-05-05T02:41:05.556Z,3.50
2019-05-05T02:43:55.733Z,3.40
2019-05-05T02:49:54.701Z,3.40
2019-05-05T02:52:34.687Z,3.50
2019-05-05T02:58:16.642Z,3.40
2019-05-05T03:01:24.418Z,3.40
2019-05-05T03:04:14.157Z,3.40
2019-05-05T03:10:10.230Z,3.40
2019-05-05T03:12:58.311Z,3.40
2019-05-05T03:19:03.635Z,3.50
2019-05-05T03:21:51.725Z,3.60
2019-05-05T03:24:39.838Z,3.70
2019-05-05T03:27:27.832Z,3.70
2019-05-05T03:30:16.082Z,3.70
2019-05-05T03:33:05.421Z,3.70
2019-05-05T03:35:54.221Z,3.70
2019-05-05T03:38:44.451Z,3.70
2019-05-05T03:41:54.220Z,3.60
2019-05-05T03:45:01.253Z,3.60
2019-05-05T03:47:49.224Z,3.60
2019-05-05T03:50:30.132Z,3.50
2019-05-05T03:53:10.836Z,3.50
2019-05-05T03:55:39.696Z,3.40
2019-05-05T03:58:27.674Z,3.40
2019-05-05T04:01:37.002Z,3.40
2019-05-05T04:04:26.049Z,3.50
2019-05-05T04:07:14.111Z,3.50
2019-05-05T04:10:03.761Z,3.50
2019-05-05T04:12:53.893Z,3.50
2019-05-05T04:18:43.482Z,3.50
2019-05-05T04:21:33.916Z,3.50
2019-05-05T04:24:21.002Z,3.50
2019-05-05T04:27:08.953Z,3.60
2019-05-05T04:29:56.975Z,3.60
2019-05-05T04:32:45.222Z,3.70
2019-05-05T04:35:33.944Z,3.70
2019-05-05T04:38:24.344Z,3.80
2019-05-05T04:41:14.007Z,3.90
2019-05-05T04:44:03.983Z,4.00
2019-05-05T04:55:53.476Z,4.10
2019-05-05T04:58:41.489Z,4.20
2019-05-05T05:01:29.609Z,4.30
2019-05-05T05:04:36.665Z,4.40
2019-05-05T05:07:18.708Z,4.40
2019-05-05T05:09:57.662Z,4.40
2019-05-05T05:12:45.758Z,4.30
2019-05-05T05:15:34.160Z,4.50
2019-05-05T05:18:24.195Z,4.70
2019-05-05T05:21:14.500Z,4.70
2019-05-05T05:24:03.990Z,4.80
2019-05-05T05:26:52.843Z,4.80
2019-05-05T05:29:41.024Z,4.90
2019-05-05T05:32:29.111Z,5.00
2019-05-05T05:35:17.132Z,5.00
2019-05-05T05:38:05.267Z,5.20
2019-05-05T05:44:14.831Z,5.40
2019-05-05T05:47:21.915Z,5.40
2019-05-05T05:50:28.938Z,5.60
2019-05-05T05:53:09.690Z,5.70
2019-05-05T05:55:50.092Z,5.90
2019-05-05T05:58:29.328Z,6.10
2019-05-05T06:01:17.273Z,6.00
2019-05-05T06:04:05.282Z,5.90
2019-05-05T06:06:54.392Z,5.90
2019-05-05T06:09:43.724Z,6.00
2019-05-05T06:12:33.686Z,5.90
2019-05-05T06:15:24.295Z,5.80
2019-05-05T06:17:53.956Z,5.80
2019-05-05T06:23:49.535Z,6.00
2019-05-05T06:29:44.644Z,6.00
2019-05-05T06:32:34.232Z,6.20
2019-05-05T06:35:24.411Z,6.20
2019-05-05T06:38:13.642Z,6.20
2019-05-05T06:41:21.200Z,6.30
2019-05-05T06:44:28.301Z,6.20
2019-05-05T06:47:35.398Z,6.30
2019-05-05T06:50:24.303Z,6.20
2019-05-05T06:53:04.307Z,6.20
2019-05-05T06:55:54.133Z,6.10
2019-05-05T06:58:44.216Z,6.20
2019-05-05T07:01:33.791Z,6.20
2019-05-05T07:04:22.064Z,6.40
2019-05-05T07:16:46.631Z,6.60
2019-05-05T07:19:15.978Z,6.70
2019-05-05T07:21:44.735Z,6.70
2019-05-05T07:24:14.555Z,6.80
2019-05-05T07:26:44.677Z,6.70
2019-05-05T07:29:16.359Z,6.50
2019-05-05T07:31:44.232Z,6.40
2019-05-05T07:34:14.373Z,6.50
2019-05-05T07:36:47.470Z,6.70
2019-05-05T07:39:16.535Z,6.90
2019-05-05T07:41:45.355Z,6.90
2019-05-05T07:44:25.732Z,7.00
2019-05-05T07:46:44.744Z,7.00
2019-05-05T07:49:14.014Z,7.10
2019-05-05T07:51:44.233Z,7.10
2019-05-05T07:54:14.469Z,7.10
2019-05-05T07:56:44.368Z,7.00
2019-05-05T07:59:14.585Z,7.20
2019-05-05T08:01:46.497Z,7.30
2019-05-05T08:04:14.184Z,7.30
2019-05-05T08:06:44.549Z,7.30
2019-05-05T08:09:14.644Z,7.50
2019-05-05T08:11:43.767Z,7.60
2019-05-05T08:14:14.402Z,7.70
2019-05-05T08:16:53.879Z,7.70
2019-05-05T08:19:34.639Z,7.60
2019-05-05T08:22:04.391Z,7.50
2019-05-05T08:24:51.223Z,7.70
2019-05-05T08:27:26.880Z,7.80
2019-05-05T08:30:02.293Z,7.90
2019-05-05T08:32:35.652Z,8.00
2019-05-05T08:35:04.862Z,8.30
2019-05-05T08:37:34.386Z,8.50
2019-05-05T08:40:04.386Z,8.50
2019-05-05T08:42:33.903Z,8.60
2019-05-05T08:45:04.637Z,8.80
2019-05-05T08:47:34.574Z,8.80
2019-05-05T08:50:04.192Z,8.90
2019-05-05T08:52:34.303Z,9.00
2019-05-05T08:55:04.676Z,8.80
2019-05-05T08:57:34.168Z,9.10
2019-05-05T09:00:04.888Z,9.00
2019-05-05T09:02:36.011Z,9.00
2019-05-05T09:05:04.474Z,8.70
2019-05-05T09:07:33.703Z,8.70
2019-05-05T09:10:05.911Z,9.10
2019-05-05T09:12:34.808Z,9.20
2019-05-05T09:15:04.434Z,9.30
2019-05-05T09:17:33.762Z,9.50
2019-05-05T09:20:04.555Z,9.40
2019-05-05T09:22:34.834Z,9.20
2019-05-05T09:25:25.439Z,9.30
2019-05-05T09:27:57.442Z,9.70
2019-05-05T09:30:37.227Z,9.70
2019-05-05T09:33:06.086Z,9.90
2019-05-05T09:35:34.824Z,9.90
2019-05-05T09:38:04.071Z,10.10
2019-05-05T09:40:38.166Z,10.20
2019-05-05T09:43:07.686Z,10.10
2019-05-05T09:45:36.737Z,10.20
2019-05-05T09:48:05.854Z,10.50
2019-05-05T09:50:34.593Z,10.50
2019-05-05T09:53:04.174Z,10.80
2019-05-05T09:55:33.643Z,10.70
2019-05-05T09:58:04.449Z,10.60
2019-05-05T10:00:37.067Z,10.40
2019-05-05T10:03:05.830Z,9.80
2019-05-05T10:05:34.773Z,9.10
2019-05-05T10:08:03.863Z,8.50
2019-05-05T10:10:33.746Z,8.20
2019-05-05T10:13:04.166Z,8.00
2019-05-05T10:15:35.662Z,7.90
2019-05-05T10:18:04.502Z,7.90
2019-05-05T10:20:34.349Z,8.00
2019-05-05T10:23:03.406Z,8.10
2019-05-05T10:25:36.991Z,8.20
2019-05-05T10:28:05.830Z,8.20
2019-05-05T10:30:35.063Z,8.30
2019-05-05T10:33:04.002Z,8.50
2019-05-05T10:35:34.670Z,8.70
2019-05-05T10:38:03.655Z,8.90
2019-05-05T10:40:34.445Z,9.20
2019-05-05T10:43:04.402Z,9.40
2019-05-05T10:45:33.580Z,9.70
2019-05-05T10:48:04.093Z,9.80
2019-05-05T10:50:34.131Z,10.00
2019-05-05T10:53:04.569Z,10.20
2019-05-05T10:55:34.637Z,10.20
2019-05-05T10:58:03.916Z,10.20
2019-05-05T11:00:47.385Z,10.20
2019-05-05T11:03:16.343Z,10.20
2019-05-05T11:05:45.307Z,10.30
2019-05-05T11:08:14.349Z,10.10
2019-05-05T11:10:44.861Z,10.00
2019-05-05T11:13:13.783Z,10.10
2019-05-05T11:15:44.378Z,10.20
2019-05-05T11:18:14.709Z,10.00
2019-05-05T11:20:44.661Z,10.10
2019-05-05T11:23:14.915Z,10.20
2019-05-05T11:25:44.483Z,10.30
2019-05-05T11:28:13.581Z,10.60
2019-05-05T11:30:43.621Z,11.00
2019-05-05T11:33:36.280Z,11.30
2019-05-05T11:36:13.582Z,11.60
2019-05-05T11:38:44.420Z,11.70
2019-05-05T11:41:14.354Z,11.60
2019-05-05T11:43:43.390Z,11.80
2019-05-05T11:46:14.134Z,11.90
2019-05-05T11:48:43.889Z,11.50
2019-05-05T11:51:14.898Z,11.30
2019-05-05T11:53:44.659Z,11.30
2019-05-05T11:56:14.431Z,11.60
2019-05-05T11:58:44.241Z,11.80
2019-05-05T12:01:13.907Z,11.30
2019-05-05T12:03:44.405Z,11.50
2019-05-05T12:06:14.680Z,11.40
2019-05-05T12:08:45.865Z,11.30
2019-05-05T12:11:15.220Z,11.40
2019-05-05T12:13:44.119Z,11.40
2019-05-05T12:16:14.658Z,11.50
2019-05-05T12:18:44.852Z,11.60
2019-05-05T12:21:14.122Z,11.80
2019-05-05T12:23:44.421Z,11.70
2019-05-05T12:26:43.768Z,11.80
2019-05-05T12:29:35.126Z,12.20
2019-05-05T12:32:04.207Z,12.30
2019-05-05T12:34:34.098Z,12.40
2019-05-05T12:37:05.174Z,12.40
2019-05-05T12:39:33.631Z,12.40
2019-05-05T12:42:04.886Z,12.00
2019-05-05T12:44:53.722Z,12.20
2019-05-05T12:47:31.001Z,12.40
2019-05-05T12:49:59.764Z,12.20
2019-05-05T12:52:28.571Z,11.60
2019-05-05T12:54:57.334Z,11.40
2019-05-05T12:57:26.127Z,11.30
2019-05-05T12:59:55.243Z,11.10
2019-05-05T13:02:24.082Z,11.20
2019-05-05T13:04:53.522Z,11.40
2019-05-05T13:07:24.265Z,11.20
2019-05-05T13:09:54.492Z,11.30
2019-05-05T13:12:23.966Z,11.30
2019-05-05T13:14:54.442Z,11.40
2019-05-05T13:17:24.498Z,11.50
2019-05-05T13:20:14.077Z,11.30
2019-05-05T13:23:05.247Z,11.20
2019-05-05T13:25:55.955Z,11.40
2019-05-05T13:28:20.329Z,11.90
2019-05-05T13:30:49.059Z,12.20
2019-05-05T13:33:17.805Z,12.30
2019-05-05T13:35:46.757Z,12.20
2019-05-05T13:38:15.590Z,11.80
2019-05-05T13:40:44.336Z,11.70
2019-05-05T13:43:14.451Z,11.80
2019-05-05T13:46:05.364Z,11.90
2019-05-05T13:48:34.232Z,11.90
2019-05-05T13:51:04.328Z,11.60
2019-05-05T13:53:34.221Z,11.60
2019-05-05T13:56:11.804Z,12.10
2019-05-05T13:58:34.311Z,12.00
2019-05-05T14:01:03.863Z,11.90
2019-05-05T14:03:34.208Z,11.90
2019-05-05T14:06:04.711Z,11.90
2019-05-05T14:08:36.272Z,12.10
2019-05-05T14:11:04.300Z,12.10
2019-05-05T14:13:34.190Z,12.30
2019-05-05T14:16:03.896Z,12.30
2019-05-05T14:18:32.867Z,12.30
2019-05-05T14:21:01.696Z,11.80
2019-05-05T14:23:32.116Z,11.60
2019-05-05T14:26:00.859Z,11.60
2019-05-05T14:28:30.004Z,11.80
2019-05-05T14:31:10.547Z,11.90
2019-05-05T14:34:07.482Z,11.90
2019-05-05T14:36:53.470Z,12.00
2019-05-05T14:39:23.964Z,12.00
2019-05-05T14:41:53.969Z,12.00
2019-05-05T14:44:24.063Z,12.10
2019-05-05T14:46:52.970Z,12.30
2019-05-05T14:49:21.726Z,12.30
2019-05-05T14:51:50.526Z,11.80
2019-05-05T14:54:19.224Z,11.70
2019-05-05T14:56:48.011Z,11.60
2019-05-05T14:59:16.842Z,11.60
2019-05-05T15:01:45.652Z,11.50
2019-05-05T15:04:16.293Z,11.50
2019-05-05T15:06:54.420Z,11.50
2019-05-05T15:09:33.574Z,11.60
2019-05-05T15:12:16.370Z,11.70
2019-05-05T15:14:45.225Z,11.60
2019-05-05T15:17:14.451Z,11.70
2019-05-05T15:19:43.653Z,11.60
2019-05-05T15:22:14.860Z,11.40
2019-05-05T15:24:44.130Z,11.50
2019-05-05T15:27:13.095Z,11.70
2019-05-05T15:29:43.664Z,11.90
2019-05-05T15:32:12.505Z,11.60
2019-05-05T15:34:43.755Z,11.60
2019-05-05T15:37:14.308Z,11.70
2019-05-05T15:39:44.165Z,11.90
2019-05-05T15:42:13.209Z,11.50
2019-05-05T15:44:43.866Z,11.10
2019-05-05T15:47:12.692Z,11.20
2019-05-05T15:49:41.466Z,11.20
2019-05-05T15:52:10.267Z,11.30
2019-05-05T15:54:39.113Z,11.30
2019-05-05T15:57:09.583Z,11.10
2019-05-05T15:59:57.763Z,11.10
2019-05-05T16:02:26.543Z,11.20
2019-05-05T16:04:55.359Z,11.20
2019-05-05T16:14:26.654Z,11.10
2019-05-05T16:16:48.805Z,11.30
2019-05-05T16:29:41.788Z,11.80
2019-05-05T16:39:16.373Z,12.00
2019-05-05T16:41:43.428Z,11.70
2019-05-05T16:44:33.998Z,11.80
2019-05-05T16:47:24.356Z,11.40
2019-05-05T16:49:54.427Z,11.50
2019-05-05T16:56:13.996Z,11.80
2019-05-05T16:59:10.441Z,11.60
2019-05-05T17:01:58.774Z,11.70
2019-05-05T17:04:27.707Z,11.80
2019-05-05T17:07:18.353Z,11.50
2019-05-05T17:17:14.290Z,11.50
2019-05-05T17:19:15.156Z,11.80
2019-05-05T17:22:29.828Z,11.70
2019-05-05T17:25:17.929Z,11.80
2019-05-05T17:28:28.193Z,12.00
2019-05-05T17:31:18.960Z,11.60
2019-05-05T17:34:10.504Z,11.30
2019-05-05T17:36:26.985Z,11.10
2019-05-05T17:39:15.465Z,11.10
2019-05-05T17:42:23.996Z,11.10
2019-05-05T17:45:31.460Z,11.00
2019-05-05T17:48:38.607Z,11.00
2019-05-05T17:51:45.894Z,10.60
2019-05-05T17:54:53.914Z,10.40
2019-05-05T17:57:35.356Z,10.10
2019-05-05T18:00:14.792Z,10.00
2019-05-05T18:03:04.347Z,9.90
2019-05-05T18:06:11.788Z,9.80
2019-05-05T18:09:30.451Z,9.80
2019-05-05T18:12:39.657Z,9.70
2019-05-05T18:15:36.908Z,9.60
2019-05-05T18:18:25.339Z,9.60
2019-05-05T18:21:14.210Z,9.50
2019-05-05T18:24:03.233Z,9.50
2019-05-05T18:26:51.301Z,9.30
2019-05-05T18:29:39.351Z,9.40
2019-05-05T18:32:27.473Z,9.40
2019-05-05T18:35:15.679Z,9.40
2019-05-05T18:38:04.229Z,9.40
2019-05-05T18:44:09.943Z,9.30
2019-05-05T18:47:18.455Z,9.20
2019-05-05T18:50:06.939Z,9.20
2019-05-05T18:52:54.959Z,9.20
2019-05-05T18:55:35.484Z,9.20
2019-05-05T18:58:26.960Z,9.20
2019-05-05T19:04:15.161Z,9.20
2019-05-05T19:09:57.118Z,9.20
2019-05-05T19:12:38.281Z,9.20
2019-05-05T19:15:17.336Z,9.20
2019-05-05T19:18:06.681Z,9.10
2019-05-05T19:23:57.974Z,9.00
2019-05-05T19:26:26.690Z,9.00
2019-05-05T19:32:09.690Z,8.90
2019-05-05T19:34:58.294Z,8.80
2019-05-05T19:37:46.424Z,8.80
2019-05-05T19:40:36.593Z,8.90
2019-05-05T19:43:25.044Z,8.80
2019-05-05T19:49:27.584Z,8.80
2019-05-05T19:52:15.798Z,8.80
2019-05-05T19:55:04.469Z,8.70
2019-05-05T19:57:46.700Z,8.70
2019-05-05T20:00:26.265Z,8.60
2019-05-05T20:03:14.676Z,8.60
2019-05-05T20:06:04.789Z,8.50
2019-05-05T20:08:53.697Z,8.50
2019-05-05T20:11:43.738Z,8.40
2019-05-05T20:14:34.225Z,8.30
2019-05-05T20:17:41.444Z,8.30
2019-05-05T20:20:29.533Z,8.30
2019-05-05T20:23:17.568Z,8.30
2019-05-05T20:26:05.643Z,8.20
2019-05-05T20:28:55.458Z,8.20
2019-05-05T20:31:43.501Z,8.20
2019-05-05T20:34:50.563Z,8.10
2019-05-05T20:37:53.962Z,8.00
2019-05-05T20:46:44.536Z,7.80
2019-05-05T20:49:34.499Z,7.70
2019-05-05T20:52:23.698Z,7.60
2019-05-05T20:55:13.931Z,7.60
2019-05-05T20:57:54.220Z,7.50
2019-05-05T21:00:34.807Z,7.40
2019-05-05T21:03:23.663Z,7.40
2019-05-05T21:06:13.854Z,7.40
2019-05-05T21:09:04.208Z,7.40
2019-05-05T21:11:52.139Z,7.30
2019-05-05T21:14:40.287Z,7.30
2019-05-05T21:17:28.459Z,7.30
2019-05-05T21:20:16.514Z,7.30
2019-05-05T21:23:24.568Z,7.30
2019-05-05T21:26:34.180Z,7.20
2019-05-05T21:29:23.653Z,7.30
2019-05-05T21:32:13.849Z,7.20
2019-05-05T21:35:01.618Z,7.20
2019-05-05T21:37:49.642Z,7.20
2019-05-05T21:40:37.626Z,7.10
2019-05-05T21:43:25.710Z,7.20
2019-05-05T21:46:13.719Z,7.10
2019-05-05T21:49:03.847Z,7.10
2019-05-05T21:55:04.256Z,7.00
2019-05-05T21:58:06.890Z,7.10
2019-05-05T22:03:54.313Z,7.00
2019-05-05T22:06:42.418Z,7.00
2019-05-05T22:09:30.670Z,7.00
2019-05-05T22:12:18.720Z,7.00
2019-05-05T22:15:06.903Z,7.00
2019-05-05T22:17:54.918Z,7.00
2019-05-05T22:24:03.954Z,6.90
2019-05-05T22:26:54.130Z,6.90
2019-05-05T22:29:44.651Z,6.90
2019-05-05T22:32:34.333Z,6.90
2019-05-05T22:35:23.970Z,6.90
2019-05-05T22:38:13.727Z,6.80
2019-05-05T22:41:02.676Z,6.80
2019-05-05T22:43:50.709Z,6.80
2019-05-05T22:46:38.799Z,6.70
2019-05-05T22:49:27.002Z,6.70
2019-05-05T22:52:15.338Z,6.70
2019-05-05T22:55:04.519Z,6.60
2019-05-05T22:57:54.410Z,6.60
2019-05-05T23:00:34.795Z,6.50
2019-05-05T23:06:24.616Z,6.40
2019-05-05T23:12:24.239Z,6.40
2019-05-05T23:15:14.412Z,6.20
2019-05-05T23:21:20.517Z,6.10
2019-05-05T23:24:27.569Z,6.10
2019-05-05T23:27:34.619Z,6.10
2019-05-05T23:33:31.379Z,6.10
2019-05-05T23:36:19.387Z,6.00
2019-05-05T23:39:07.411Z,5.90
2019-05-05T23:41:55.375Z,5.90
2019-05-05T23:44:43.383Z,5.80
2019-05-05T23:47:31.389Z,5.80
2019-05-05T23:50:19.405Z,5.70
2019-05-05T23:53:07.461Z,5.70
2019-05-05T23:55:55.538Z,5.60
2019-05-05T23:58:34.782Z,5.60
